createdAt,value
2017-04-27T00:00:02.933Z,83.85
2017-04-27T00:15:02.639Z,83.58
2017-04-27T00:30:02.592Z,82.6
2017-04-27T00:45:02.452Z,84
2017-04-27T01:00:02.752Z,85.39
2017-04-27T01:15:02.580Z,85.74
2017-04-27T01:30:02.628Z,85.34
2017-04-27T01:45:02.684Z,84.41
2017-04-27T02:00:02.223Z,87.65
2017-04-27T02:15:02.157Z,88.17
2017-04-27T02:30:02.893Z,88.18
2017-04-27T02:45:02.589Z,89.1
2017-04-27T03:00:02.312Z,88.81
2017-04-27T03:15:02.022Z,89.31
2017-04-27T03:30:02.750Z,88.88
2017-04-27T03:45:02.220Z,88.68
2017-04-27T04:00:02.714Z,90.96
2017-04-27T04:15:02.813Z,91.13
2017-04-27T04:30:02.076Z,90.84
2017-04-27T04:45:02.753Z,91.55
2017-04-27T05:00:02.805Z,89.68
2017-04-27T05:15:02.811Z,89.86
2017-04-27T05:30:02.608Z,89.55
2017-04-27T05:45:02.653Z,88.01
2017-04-27T06:00:02.432Z,86.21
2017-04-27T06:15:02.496Z,85.05
2017-04-27T06:30:02.184Z,83.03
2017-04-27T06:45:02.688Z,79.4
2017-04-27T07:00:02.772Z,78.35
2017-04-27T07:15:02.118Z,77.71
2017-04-27T07:30:02.842Z,76.93
2017-04-27T07:45:02.333Z,74.54
2017-04-27T08:00:02.069Z,72.16
2017-04-27T08:15:02.305Z,68.94
2017-04-27T08:30:02.427Z,69.15
2017-04-27T08:45:02.897Z,68.34
2017-04-27T09:00:02.204Z,61.75
2017-04-27T09:15:02.656Z,60.27
2017-04-27T09:30:02.686Z,57.14
2017-04-27T09:45:02.871Z,56.92
2017-04-27T10:00:02.552Z,57.11
2017-04-27T10:15:02.305Z,58.27
2017-04-27T10:30:03.055Z,61.34
2017-04-27T10:45:02.564Z,59.58
2017-04-27T11:00:02.316Z,57.22
2017-04-27T11:15:02.455Z,58.19
2017-04-27T11:30:02.182Z,53.51
2017-04-27T11:45:02.630Z,54.83
2017-04-27T12:00:02.254Z,57.43
2017-04-27T12:15:02.712Z,53.85
2017-04-27T12:30:02.054Z,50.79
2017-04-27T12:45:02.597Z,46.27
2017-04-27T13:00:02.479Z,46.65
2017-04-27T13:15:02.143Z,49.6
2017-04-27T13:30:02.920Z,50.54
2017-04-27T13:45:02.418Z,47.83
2017-04-27T14:00:02.732Z,43.5
2017-04-27T14:15:02.589Z,42.18
2017-04-27T14:30:02.247Z,38.66
2017-04-27T14:45:02.750Z,38.99
2017-04-27T15:00:02.399Z,33.64
2017-04-27T15:15:02.349Z,34.5
2017-04-27T15:30:02.622Z,34.89
2017-04-27T15:45:02.851Z,36.03
2017-04-27T16:00:02.300Z,34.68
2017-04-27T16:15:02.177Z,36.58
2017-04-27T16:30:02.570Z,37.07
2017-04-27T16:45:03.012Z,38.66
2017-04-27T17:00:02.467Z,38.19
2017-04-27T17:15:02.433Z,40.41
2017-04-27T17:30:02.505Z,39.53
2017-04-27T17:45:02.795Z,41.24
2017-04-27T18:00:21.360Z,42.82
2017-04-27T18:02:29.575Z,43.11
2017-04-27T18:15:02.037Z,43.86
2017-04-27T18:30:02.632Z,45.36
2017-04-27T18:45:03.048Z,47.09
2017-04-27T19:00:02.770Z,50.85
2017-04-27T19:15:02.371Z,52.49
2017-04-27T19:30:02.080Z,52.15
2017-04-27T19:45:02.570Z,53.55
2017-04-27T20:00:02.998Z,59.94
2017-04-27T20:15:03.001Z,62.28
2017-04-27T20:30:02.936Z,63.48
2017-04-27T20:45:02.586Z,65.23
2017-04-27T21:00:02.933Z,69.57
2017-04-27T21:15:02.500Z,70.91
2017-04-27T21:30:02.350Z,70.11
2017-04-27T21:45:02.855Z,70.55
2017-04-27T22:00:02.366Z,69.43
2017-04-27T22:15:02.035Z,70.29
2017-04-27T22:30:02.184Z,71.98
2017-04-27T22:45:02.730Z,71.53
2017-04-27T23:00:02.834Z,71.05
2017-04-27T23:15:02.955Z,71.67
2017-04-27T23:30:02.109Z,73.21
2017-04-27T23:45:02.938Z,74.33
